createdAt,value
2022-12-27T00:03:22.004Z,73.01
2022-12-27T00:08:24.268Z,72.88
2022-12-27T00:13:28.919Z,72.97
2022-12-27T00:18:31.199Z,73.22
2022-12-27T00:23:38.360Z,73.06
2022-12-27T00:28:40.647Z,73.01
2022-12-27T00:33:46.238Z,73.02
2022-12-27T00:38:49.280Z,72.91
2022-12-27T00:43:51.625Z,72.98
2022-12-27T00:48:54.243Z,72.94
2022-12-27T00:53:57.359Z,72.69
2022-12-27T00:59:02.321Z,72.85
2022-12-27T01:04:05.458Z,72.53
2022-12-27T01:09:08.274Z,72.44
2022-12-27T01:14:13.675Z,72.55
2022-12-27T01:19:16.139Z,72.72
2022-12-27T01:24:18.359Z,72.83
2022-12-27T01:29:20.735Z,73.04
2022-12-27T01:34:23.125Z,73.16
2022-12-27T01:39:25.460Z,73.22
2022-12-27T01:44:40.348Z,73.16
2022-12-27T01:50:05.408Z,73.36
2022-12-27T01:55:19.127Z,73.58
2022-12-27T02:00:22.195Z,73.38
2022-12-27T02:05:27.370Z,73.40
2022-12-27T02:10:31.817Z,73.44
2022-12-27T02:15:35.132Z,73.51
2022-12-27T02:20:59.300Z,73.56
2022-12-27T02:26:33.243Z,73.63
2022-12-27T02:31:42.891Z,73.89
2022-12-27T02:36:47.049Z,73.99
2022-12-27T02:42:08.313Z,74.16
2022-12-27T02:47:42.381Z,74.12
2022-12-27T02:53:17.733Z,74.16
2022-12-27T02:58:36.088Z,74.24
2022-12-27T03:03:55.308Z,74.08
2022-12-27T03:09:39.555Z,74.38
2022-12-27T03:15:05.780Z,74.26
2022-12-27T03:20:31.775Z,74.09
2022-12-27T03:25:37.385Z,74.16
2022-12-27T03:30:59.996Z,74.51
2022-12-27T03:36:31.080Z,74.15
2022-12-27T03:41:59.471Z,74.25
2022-12-27T03:47:09.009Z,74.07
2022-12-27T03:52:28.332Z,74.34
2022-12-27T03:57:32.864Z,74.04
2022-12-27T04:02:39.677Z,74.21
2022-12-27T04:08:11.101Z,74.25
2022-12-27T04:13:32.518Z,74.13
2022-12-27T04:18:54.270Z,74.23
2022-12-27T04:24:15.579Z,74.28
2022-12-27T04:29:38.472Z,74.43
2022-12-27T04:34:45.986Z,74.26
2022-12-27T04:40:33.700Z,74.39
2022-12-27T04:45:58.075Z,74.51
2022-12-27T04:51:19.801Z,74.46
2022-12-27T04:56:28.429Z,74.39
2022-12-27T05:01:51.895Z,74.19
2022-12-27T05:06:56.849Z,74.39
2022-12-27T05:12:19.507Z,74.27
2022-12-27T05:17:24.849Z,74.46
2022-12-27T05:22:47.979Z,74.36
2022-12-27T05:27:53.881Z,74.62
2022-12-27T05:33:05.630Z,74.60
2022-12-27T05:38:10.433Z,74.59
2022-12-27T05:43:23.420Z,74.58
2022-12-27T05:48:29.784Z,74.59
2022-12-27T05:53:34.882Z,74.62
2022-12-27T05:58:40.354Z,74.61
2022-12-27T06:03:46.025Z,74.81
2022-12-27T06:08:49.653Z,74.60
2022-12-27T06:13:57.921Z,74.84
2022-12-27T06:19:02.589Z,74.70
2022-12-27T06:24:08.024Z,74.82
2022-12-27T06:29:12.514Z,74.63
2022-12-27T06:34:15.097Z,74.77
2022-12-27T06:39:18.582Z,75.21
2022-12-27T06:44:21.022Z,75.00
2022-12-27T06:49:26.049Z,74.98
2022-12-27T06:54:28.423Z,75.05
2022-12-27T06:59:30.685Z,75.04
2022-12-27T07:04:32.909Z,75.39
2022-12-27T07:09:35.141Z,75.40
2022-12-27T07:14:37.466Z,75.46
2022-12-27T07:19:40.417Z,75.63
2022-12-27T07:24:45.118Z,75.70
2022-12-27T07:29:47.476Z,75.75
2022-12-27T07:34:49.733Z,75.79
2022-12-27T07:39:51.984Z,76.09
2022-12-27T07:44:54.289Z,75.98
2022-12-27T07:49:56.899Z,76.01
2022-12-27T07:55:00.072Z,75.91
2022-12-27T08:00:02.657Z,76.17
2022-12-27T08:05:14.219Z,76.02
2022-12-27T08:10:17.088Z,76.00
2022-12-27T08:15:23.573Z,76.25
2022-12-27T08:20:25.796Z,76.41
2022-12-27T08:25:29.357Z,76.35
2022-12-27T08:30:31.855Z,76.41
2022-12-27T08:35:54.646Z,76.13
2022-12-27T08:40:58.110Z,76.40
2022-12-27T08:46:03.130Z,76.52
2022-12-27T08:51:12.334Z,76.49
2022-12-27T08:56:16.070Z,76.67
2022-12-27T09:01:18.686Z,76.51
2022-12-27T09:06:23.154Z,76.46
2022-12-27T09:11:33.977Z,76.59
2022-12-27T09:16:36.519Z,76.72
2022-12-27T09:21:41.298Z,76.70
2022-12-27T09:26:46.572Z,76.64
2022-12-27T09:31:48.857Z,76.68
2022-12-27T09:36:51.155Z,76.66
2022-12-27T09:42:46.595Z,76.85
2022-12-27T09:47:40.721Z,76.90
2022-12-27T09:52:57.926Z,76.98
2022-12-27T09:58:36.618Z,76.98
2022-12-27T10:03:38.841Z,76.86
2022-12-27T10:08:53.954Z,76.98
2022-12-27T10:14:02.516Z,76.89
2022-12-27T10:19:30.436Z,77.19
2022-12-27T10:24:38.611Z,77.00
2022-12-27T10:29:41.783Z,76.97
2022-12-27T10:34:44.339Z,77.21
2022-12-27T10:39:47.241Z,77.38
2022-12-27T10:44:49.795Z,77.33
2022-12-27T10:50:12.887Z,77.74
2022-12-27T10:55:37.018Z,77.87
2022-12-27T11:00:39.385Z,77.11
2022-12-27T11:05:41.635Z,77.55
2022-12-27T11:10:43.918Z,77.53
2022-12-27T11:15:58.516Z,77.87
2022-12-27T11:21:04.527Z,77.78
2022-12-27T11:26:20.568Z,78.00
2022-12-27T11:31:40.549Z,78.14
2022-12-27T11:36:44.956Z,78.00
2022-12-27T11:41:53.023Z,78.33
2022-12-27T11:47:31.944Z,78.55
2022-12-27T11:52:43.623Z,78.36
2022-12-27T11:58:25.407Z,78.75
2022-12-27T12:03:46.050Z,78.35
2022-12-27T12:09:18.745Z,78.88
2022-12-27T12:14:30.971Z,78.73
2022-12-27T12:20:05.045Z,78.80
2022-12-27T12:25:23.140Z,78.75
2022-12-27T12:30:50.433Z,79.00
2022-12-27T12:35:56.532Z,78.83
2022-12-27T12:41:43.757Z,79.13
2022-12-27T12:46:49.190Z,78.80
2022-12-27T12:52:05.830Z,79.45
2022-12-27T12:57:28.160Z,79.44
2022-12-27T13:02:30.500Z,79.38
2022-12-27T13:08:02.885Z,79.54
2022-12-27T13:13:26.515Z,79.75
2022-12-27T13:18:34.376Z,79.23
2022-12-27T13:23:48.825Z,79.85
2022-12-27T13:29:02.474Z,79.90
2022-12-27T13:34:38.924Z,80.02
2022-12-27T13:40:07.837Z,80.24
2022-12-27T13:45:46.784Z,80.36
2022-12-27T13:51:25.788Z,80.32
2022-12-27T13:57:10.949Z,80.29
2022-12-27T14:02:38.416Z,80.60
2022-12-27T14:08:14.973Z,80.66
2022-12-27T14:13:39.274Z,80.51
2022-12-27T14:18:41.411Z,80.40
2022-12-27T14:23:58.883Z,80.58
2022-12-27T14:29:33.957Z,80.83
2022-12-27T14:34:59.652Z,80.55
2022-12-27T14:40:24.235Z,81.17
2022-12-27T14:45:52.336Z,80.91
2022-12-27T14:51:49.865Z,81.09
2022-12-27T14:56:52.574Z,81.42
2022-12-27T15:02:25.729Z,81.29
2022-12-27T15:08:06.583Z,81.48
2022-12-27T15:13:40.209Z,81.55
2022-12-27T15:18:56.100Z,81.24
2022-12-27T15:23:58.322Z,81.24
2022-12-27T15:29:27.919Z,81.48
2022-12-27T15:34:45.885Z,81.63
2022-12-27T15:39:50.361Z,81.37
2022-12-27T15:44:55.618Z,81.47
2022-12-27T15:50:25.211Z,81.84
2022-12-27T15:56:01.651Z,82.08
2022-12-27T16:01:45.944Z,81.92
2022-12-27T16:07:42.302Z,81.96
2022-12-27T16:12:45.434Z,81.73
2022-12-27T16:17:57.416Z,82.25
2022-12-27T16:23:06.594Z,81.91
2022-12-27T16:28:19.342Z,82.17
2022-12-27T16:33:27.702Z,82.41
2022-12-27T16:38:30.810Z,82.29
2022-12-27T16:43:46.510Z,82.52
2022-12-27T16:48:59.669Z,82.51
2022-12-27T16:54:15.277Z,82.35
2022-12-27T17:00:03.082Z,82.78
2022-12-27T17:06:31.110Z,82.85
2022-12-27T17:17:49.075Z,82.93
2022-12-27T17:22:53.943Z,82.33
2022-12-27T17:27:57.990Z,82.64
2022-12-27T17:33:18.555Z,82.87
2022-12-27T17:38:42.756Z,82.93
2022-12-27T17:44:22.127Z,83.27
2022-12-27T17:49:29.898Z,82.94
2022-12-27T17:54:51.246Z,82.91
2022-12-27T17:59:56.205Z,83.13
2022-12-27T18:05:02.017Z,83.09
2022-12-27T18:10:22.272Z,83.21
2022-12-27T18:15:29.924Z,83.32
2022-12-27T18:20:35.885Z,83.36
2022-12-27T18:25:49.223Z,83.40
2022-12-27T18:31:18.940Z,83.55
2022-12-27T18:36:32.926Z,83.40
2022-12-27T18:41:39.727Z,83.57
2022-12-27T18:46:43.207Z,83.47
2022-12-27T18:51:48.000Z,83.47
2022-12-27T18:56:56.068Z,83.90
2022-12-27T19:02:01.731Z,83.71
2022-12-27T19:07:07.480Z,83.98
2022-12-27T19:12:24.652Z,84.11
2022-12-27T19:17:30.818Z,83.85
2022-12-27T19:22:49.745Z,84.03
2022-12-27T19:28:06.652Z,83.91
2022-12-27T19:33:29.712Z,84.07
2022-12-27T19:38:33.878Z,84.00
2022-12-27T19:43:45.072Z,84.14
2022-12-27T19:49:07.687Z,84.25
2022-12-27T19:54:14.933Z,84.27
2022-12-27T19:59:22.392Z,84.21
2022-12-27T20:04:24.670Z,84.28
2022-12-27T20:09:27.974Z,84.32
2022-12-27T20:14:30.227Z,84.38
2022-12-27T20:19:32.413Z,84.19
2022-12-27T20:24:35.347Z,84.28
2022-12-27T20:29:37.741Z,84.53
2022-12-27T20:34:39.987Z,84.45
2022-12-27T20:39:42.207Z,84.40
2022-12-27T20:44:44.436Z,84.42
2022-12-27T20:49:46.651Z,84.51
2022-12-27T20:54:48.901Z,84.62
2022-12-27T20:59:51.225Z,84.56
2022-12-27T21:04:53.748Z,84.65
2022-12-27T21:09:56.082Z,84.61
2022-12-27T21:14:58.794Z,84.81
2022-12-27T21:20:01.138Z,84.89
2022-12-27T21:25:05.711Z,84.94
2022-12-27T21:30:09.011Z,84.83
2022-12-27T21:35:11.275Z,84.86
2022-12-27T21:40:13.540Z,85.03
2022-12-27T21:45:15.892Z,84.99
2022-12-27T21:50:18.080Z,84.99
2022-12-27T21:55:20.375Z,85.14
2022-12-27T22:00:22.613Z,85.07
2022-12-27T22:05:25.052Z,85.01
2022-12-27T22:10:27.300Z,85.21
2022-12-27T22:15:30.275Z,85.07
2022-12-27T22:20:32.518Z,85.05
2022-12-27T22:25:34.749Z,85.10
2022-12-27T22:30:41.111Z,85.25
2022-12-27T22:35:43.779Z,84.97
2022-12-27T22:40:46.954Z,84.89
2022-12-27T22:45:53.811Z,85.00
2022-12-27T22:50:56.285Z,85.05
2022-12-27T22:55:58.492Z,85.04
2022-12-27T23:01:00.998Z,85.39
2022-12-27T23:06:03.247Z,85.21
2022-12-27T23:11:17.714Z,85.13
2022-12-27T23:16:20.072Z,85.32
2022-12-27T23:21:24.465Z,85.35
2022-12-27T23:26:27.937Z,85.33
2022-12-27T23:31:30.336Z,85.17
2022-12-27T23:36:33.124Z,85.22
2022-12-27T23:41:37.326Z,85.07
2022-12-27T23:46:39.639Z,85.02
2022-12-27T23:51:42.098Z,85.03
2022-12-27T23:56:44.340Z,85.25
